sensor_id;sensor_type;location;lat;lon;timestamp;pressure;altitude;pressure_sealevel;temperature;humidity
13027;BME280;6580;42.680;23.324;2024-02-15T00:01:54;95720.56;;;5.45;75.86
13027;BME280;6580;42.680;23.324;2024-02-15T00:04:22;95732.28;;;5.30;76.35
13027;BME280;6580;42.680;23.324;2024-02-15T00:06:49;95724.50;;;5.39;77.29
13027;BME280;6580;42.680;23.324;2024-02-15T00:09:17;95733.91;;;5.43;76.79
13027;BME280;6580;42.680;23.324;2024-02-15T00:11:44;95728.09;;;5.38;77.13
13027;BME280;6580;42.680;23.324;2024-02-15T00:14:11;95728.34;;;5.35;76.59
13027;BME280;6580;42.680;23.324;2024-02-15T00:16:38;95728.56;;;5.32;76.21
13027;BME280;6580;42.680;23.324;2024-02-15T00:19:07;95724.72;;;5.36;77.01
13027;BME280;6580;42.680;23.324;2024-02-15T00:21:34;95735.09;;;5.50;77.21
13027;BME280;6580;42.680;23.324;2024-02-15T00:24:02;95734.06;;;5.29;77.41
13027;BME280;6580;42.680;23.324;2024-02-15T00:26:33;95734.13;;;5.40;77.06
13027;BME280;6580;42.680;23.324;2024-02-15T00:29:00;95738.97;;;5.57;77.05
13027;BME280;6580;42.680;23.324;2024-02-15T00:31:27;95741.34;;;5.49;76.79
13027;BME280;6580;42.680;23.324;2024-02-15T00:33:56;95744.19;;;5.46;76.29
13027;BME280;6580;42.680;23.324;2024-02-15T00:36:26;95744.09;;;5.48;76.75
13027;BME280;6580;42.680;23.324;2024-02-15T00:38:56;95745.88;;;5.47;76.93
13027;BME280;6580;42.680;23.324;2024-02-15T00:41:23;95748.31;;;5.50;75.70
13027;BME280;6580;42.680;23.324;2024-02-15T00:43:51;95738.16;;;5.33;76.63
13027;BME280;6580;42.680;23.324;2024-02-15T00:46:19;95743.00;;;5.39;76.50
13027;BME280;6580;42.680;23.324;2024-02-15T00:48:46;95742.25;;;5.37;78.20
13027;BME280;6580;42.680;23.324;2024-02-15T00:51:16;95735.09;;;5.50;76.43
13027;BME280;6580;42.680;23.324;2024-02-15T00:53:44;95731.97;;;5.45;75.83
13027;BME280;6580;42.680;23.324;2024-02-15T00:56:11;95742.66;;;5.44;75.17
13027;BME280;6580;42.680;23.324;2024-02-15T00:58:38;95742.78;;;5.42;75.84
13027;BME280;6580;42.680;23.324;2024-02-15T01:01:06;95749.53;;;5.57;75.18
13027;BME280;6580;42.680;23.324;2024-02-15T01:03:34;95746.69;;;5.37;75.74
13027;BME280;6580;42.680;23.324;2024-02-15T01:06:02;95741.25;;;5.51;76.32
13027;BME280;6580;42.680;23.324;2024-02-15T01:08:31;95743.50;;;5.44;75.82
13027;BME280;6580;42.680;23.324;2024-02-15T01:10:59;95747.34;;;5.51;76.05
13027;BME280;6580;42.680;23.324;2024-02-15T01:13:27;95738.69;;;5.49;75.92
13027;BME280;6580;42.680;23.324;2024-02-15T01:15:54;95746.78;;;5.59;75.83
13027;BME280;6580;42.680;23.324;2024-02-15T01:18:21;95748.69;;;5.57;75.00
13027;BME280;6580;42.680;23.324;2024-02-15T01:20:48;95735.75;;;5.30;75.19
13027;BME280;6580;42.680;23.324;2024-02-15T01:23:15;95732.44;;;5.39;75.55
13027;BME280;6580;42.680;23.324;2024-02-15T01:25:42;95743.94;;;5.38;75.21
13027;BME280;6580;42.680;23.324;2024-02-15T01:28:12;95740.53;;;5.02;76.71
13027;BME280;6580;42.680;23.324;2024-02-15T01:30:40;95735.16;;;5.03;77.93
13027;BME280;6580;42.680;23.324;2024-02-15T01:33:09;95734.72;;;5.09;78.31
13027;BME280;6580;42.680;23.324;2024-02-15T01:35:36;95742.31;;;5.25;76.83
13027;BME280;6580;42.680;23.324;2024-02-15T01:38:12;95736.44;;;5.21;77.29
13027;BME280;6580;42.680;23.324;2024-02-15T01:40:40;95749.53;;;5.23;77.43
13027;BME280;6580;42.680;23.324;2024-02-15T01:43:08;95739.91;;;5.22;76.46
13027;BME280;6580;42.680;23.324;2024-02-15T01:45:36;95740.47;;;5.14;77.14
13027;BME280;6580;42.680;23.324;2024-02-15T01:48:05;95733.22;;;5.29;76.71
13027;BME280;6580;42.680;23.324;2024-02-15T01:50:33;95736.06;;;5.15;76.85
13027;BME280;6580;42.680;23.324;2024-02-15T01:53:01;95737.44;;;5.31;77.43
13027;BME280;6580;42.680;23.324;2024-02-15T01:55:31;95740.56;;;5.25;76.13
13027;BME280;6580;42.680;23.324;2024-02-15T01:58:00;95728.56;;;5.32;75.56
13027;BME280;6580;42.680;23.324;2024-02-15T02:00:27;95743.91;;;5.27;75.82
13027;BME280;6580;42.680;23.324;2024-02-15T02:02:56;95735.78;;;5.07;77.73
13027;BME280;6580;42.680;23.324;2024-02-15T02:05:28;95737.63;;;5.17;78.42
13027;BME280;6580;42.680;23.324;2024-02-15T02:07:55;95743.22;;;5.36;76.83
13027;BME280;6580;42.680;23.324;2024-02-15T02:10:24;95737.63;;;5.17;76.85
13027;BME280;6580;42.680;23.324;2024-02-15T02:12:53;95750.81;;;5.17;77.30
13027;BME280;6580;42.680;23.324;2024-02-15T02:15:20;95740.06;;;5.31;77.46
13027;BME280;6580;42.680;23.324;2024-02-15T02:17:48;95755.50;;;5.14;76.89
13027;BME280;6580;42.680;23.324;2024-02-15T02:20:22;95751.22;;;5.00;78.18
13027;BME280;6580;42.680;23.324;2024-02-15T02:22:54;95740.22;;;5.06;77.86
13027;BME280;6580;42.680;23.324;2024-02-15T02:25:30;95710.78;;;4.77;79.24
13027;BME280;6580;42.680;23.324;2024-02-15T02:27:57;95757.50;;;4.87;79.20
13027;BME280;6580;42.680;23.324;2024-02-15T02:30:26;95755.75;;;4.98;78.92
13027;BME280;6580;42.680;23.324;2024-02-15T02:32:55;95753.72;;;5.02;78.78
13027;BME280;6580;42.680;23.324;2024-02-15T02:35:25;95753.75;;;5.25;77.82
13027;BME280;6580;42.680;23.324;2024-02-15T02:37:52;95752.94;;;5.12;78.36
13027;BME280;6580;42.680;23.324;2024-02-15T02:40:19;95752.84;;;5.14;77.96
13027;BME280;6580;42.680;23.324;2024-02-15T02:42:53;95764.47;;;5.11;78.23
13027;BME280;6580;42.680;23.324;2024-02-15T02:45:23;95755.72;;;5.11;77.50
13027;BME280;6580;42.680;23.324;2024-02-15T02:47:51;95759.19;;;5.11;77.95
13027;BME280;6580;42.680;23.324;2024-02-15T02:50:20;95763.97;;;5.06;79.30
13027;BME280;6580;42.680;23.324;2024-02-15T02:52:48;95761.59;;;5.14;78.28
13027;BME280;6580;42.680;23.324;2024-02-15T02:55:16;95752.56;;;5.06;78.36
13027;BME280;6580;42.680;23.324;2024-02-15T02:57:43;95757.75;;;5.07;78.68
13027;BME280;6580;42.680;23.324;2024-02-15T03:00:14;95765.59;;;4.97;79.11
13027;BME280;6580;42.680;23.324;2024-02-15T03:02:42;95749.19;;;4.81;79.71
13027;BME280;6580;42.680;23.324;2024-02-15T03:05:11;95766.28;;;5.11;79.96
13027;BME280;6580;42.680;23.324;2024-02-15T03:07:40;95761.13;;;5.09;78.12
13027;BME280;6580;42.680;23.324;2024-02-15T03:10:09;95768.31;;;5.07;77.72
13027;BME280;6580;42.680;23.324;2024-02-15T03:12:39;95760.34;;;4.84;79.13
13027;BME280;6580;42.680;23.324;2024-02-15T03:15:07;95778.78;;;4.97;80.06
13027;BME280;6580;42.680;23.324;2024-02-15T03:17:40;95777.81;;;4.97;79.11
13027;BME280;6580;42.680;23.324;2024-02-15T03:20:09;95777.22;;;4.94;79.45
13027;BME280;6580;42.680;23.324;2024-02-15T03:22:38;95776.09;;;4.86;79.03
13027;BME280;6580;42.680;23.324;2024-02-15T03:25:07;95784.97;;;4.85;79.52
13027;BME280;6580;42.680;23.324;2024-02-15T03:27:36;95798.66;;;4.90;79.86
13027;BME280;6580;42.680;23.324;2024-02-15T03:30:05;95787.06;;;4.80;80.17
13027;BME280;6580;42.680;23.324;2024-02-15T03:32:32;95774.66;;;4.57;80.33
13027;BME280;6580;42.680;23.324;2024-02-15T03:35:01;95794.06;;;4.68;80.85
13027;BME280;6580;42.680;23.324;2024-02-15T03:37:28;95797.56;;;4.69;80.48
13027;BME280;6580;42.680;23.324;2024-02-15T03:39:57;95797.25;;;4.61;81.70
13027;BME280;6580;42.680;23.324;2024-02-15T03:42:24;95794.09;;;4.56;81.75
13027;BME280;6580;42.680;23.324;2024-02-15T03:44:54;95791.94;;;4.73;81.77
13027;BME280;6580;42.680;23.324;2024-02-15T03:47:21;95788.34;;;4.87;82.03
13027;BME280;6580;42.680;23.324;2024-02-15T03:49:49;95793.41;;;4.90;80.73
13027;BME280;6580;42.680;23.324;2024-02-15T03:52:20;95787.94;;;4.80;80.90
13027;BME280;6580;42.680;23.324;2024-02-15T03:54:48;95787.38;;;4.88;80.44
13027;BME280;6580;42.680;23.324;2024-02-15T03:57:16;95788.94;;;4.90;79.54
13027;BME280;6580;42.680;23.324;2024-02-15T03:59:43;95776.28;;;4.95;79.42
13027;BME280;6580;42.680;23.324;2024-02-15T04:02:12;95792.25;;;4.81;80.67
13027;BME280;6580;42.680;23.324;2024-02-15T04:04:40;95784.34;;;4.81;79.79
13027;BME280;6580;42.680;23.324;2024-02-15T04:07:08;95785.47;;;4.90;79.05
13027;BME280;6580;42.680;23.324;2024-02-15T04:09:41;95790.66;;;4.79;80.80
13027;BME280;6580;42.680;23.324;2024-02-15T04:12:09;95785.03;;;4.47;80.49
13027;BME280;6580;42.680;23.324;2024-02-15T04:14:37;95786.41;;;4.53;81.49
13027;BME280;6580;42.680;23.324;2024-02-15T04:17:05;95793.38;;;4.41;82.00
13027;BME280;6580;42.680;23.324;2024-02-15T04:19:32;95785.47;;;4.54;82.41
13027;BME280;6580;42.680;23.324;2024-02-15T04:22:01;95794.72;;;4.72;82.05
13027;BME280;6580;42.680;23.324;2024-02-15T04:24:32;95799.94;;;4.84;81.21
13027;BME280;6580;42.680;23.324;2024-02-15T04:27:03;95787.78;;;4.58;80.75
13027;BME280;6580;42.680;23.324;2024-02-15T04:29:46;95794.91;;;4.69;81.27
13027;BME280;6580;42.680;23.324;2024-02-15T04:32:13;95795.13;;;4.66;81.58
13027;BME280;6580;42.680;23.324;2024-02-15T04:34:42;95793.31;;;4.66;82.43
13027;BME280;6580;42.680;23.324;2024-02-15T04:37:12;95791.34;;;4.70;81.75
13027;BME280;6580;42.680;23.324;2024-02-15T04:39:40;95794.28;;;4.65;80.60
13027;BME280;6580;42.680;23.324;2024-02-15T04:42:08;95803.81;;;4.55;81.88
13027;BME280;6580;42.680;23.324;2024-02-15T04:44:38;95799.56;;;4.65;82.00
13027;BME280;6580;42.680;23.324;2024-02-15T04:47:06;95810.03;;;4.54;82.15
13027;BME280;6580;42.680;23.324;2024-02-15T04:49:37;95813.00;;;4.50;82.63
13027;BME280;6580;42.680;23.324;2024-02-15T04:52:04;95808.25;;;4.55;82.23
13027;BME280;6580;42.680;23.324;2024-02-15T04:54:35;95806.78;;;4.38;83.56
13027;BME280;6580;42.680;23.324;2024-02-15T04:57:04;95819.69;;;4.66;82.56
13027;BME280;6580;42.680;23.324;2024-02-15T04:59:38;95822.38;;;4.54;82.62
13027;BME280;6580;42.680;23.324;2024-02-15T05:02:06;95822.78;;;4.60;82.38
13027;BME280;6580;42.680;23.324;2024-02-15T05:04:33;95830.56;;;4.87;81.06
13027;BME280;6580;42.680;23.324;2024-02-15T05:07:01;95830.78;;;4.59;81.49
13027;BME280;6580;42.680;23.324;2024-02-15T05:09:30;95823.63;;;4.61;82.25
13027;BME280;6580;42.680;23.324;2024-02-15T05:11:59;95836.94;;;4.47;81.87
13027;BME280;6580;42.680;23.324;2024-02-15T05:14:27;95833.88;;;4.53;82.72
13027;BME280;6580;42.680;23.324;2024-02-15T05:16:56;95840.53;;;4.46;83.40
13027;BME280;6580;42.680;23.324;2024-02-15T05:19:24;95838.41;;;4.51;83.00
13027;BME280;6580;42.680;23.324;2024-02-15T05:21:51;95833.34;;;4.48;84.56
13027;BME280;6580;42.680;23.324;2024-02-15T05:24:19;95834.31;;;4.47;83.46
13027;BME280;6580;42.680;23.324;2024-02-15T05:26:46;95832.31;;;4.25;85.65
13027;BME280;6580;42.680;23.324;2024-02-15T05:29:14;95841.59;;;4.43;84.64
13027;BME280;6580;42.680;23.324;2024-02-15T05:31:43;95840.31;;;4.24;84.49
13027;BME280;6580;42.680;23.324;2024-02-15T05:34:12;95847.16;;;4.39;85.41
13027;BME280;6580;42.680;23.324;2024-02-15T05:36:40;95848.75;;;4.41;84.02
13027;BME280;6580;42.680;23.324;2024-02-15T05:39:09;95844.63;;;4.25;84.71
13027;BME280;6580;42.680;23.324;2024-02-15T05:41:38;95849.06;;;4.37;84.80
13027;BME280;6580;42.680;23.324;2024-02-15T05:44:05;95854.44;;;4.48;84.11
13027;BME280;6580;42.680;23.324;2024-02-15T05:46:34;95862.16;;;4.63;82.93
13027;BME280;6580;42.680;23.324;2024-02-15T05:49:04;95867.31;;;4.40;83.65
13027;BME280;6580;42.680;23.324;2024-02-15T05:51:32;95864.47;;;4.55;84.22
13027;BME280;6580;42.680;23.324;2024-02-15T05:54:00;95861.81;;;4.68;82.91
13027;BME280;6580;42.680;23.324;2024-02-15T05:56:29;95861.50;;;4.72;81.63
13027;BME280;6580;42.680;23.324;2024-02-15T05:58:59;95866.03;;;4.70;81.25
13027;BME280;6580;42.680;23.324;2024-02-15T06:01:27;95864.53;;;4.79;80.70
13027;BME280;6580;42.680;23.324;2024-02-15T06:03:55;95866.03;;;4.58;81.55
13027;BME280;6580;42.680;23.324;2024-02-15T06:06:23;95864.88;;;4.74;81.55
13027;BME280;6580;42.680;23.324;2024-02-15T06:08:56;95875.63;;;4.59;82.04
13027;BME280;6580;42.680;23.324;2024-02-15T06:11:26;95871.97;;;4.61;83.03
13027;BME280;6580;42.680;23.324;2024-02-15T06:13:56;95878.06;;;4.37;83.41
13027;BME280;6580;42.680;23.324;2024-02-15T06:16:23;95874.06;;;4.69;82.96
13027;BME280;6580;42.680;23.324;2024-02-15T06:18:52;95885.22;;;4.72;81.82
13027;BME280;6580;42.680;23.324;2024-02-15T06:21:24;95882.69;;;4.83;81.85
13027;BME280;6580;42.680;23.324;2024-02-15T06:23:52;95891.88;;;4.78;80.88
13027;BME280;6580;42.680;23.324;2024-02-15T06:26:21;95887.66;;;4.88;80.82
13027;BME280;6580;42.680;23.324;2024-02-15T06:28:48;95898.88;;;5.14;80.65
13027;BME280;6580;42.680;23.324;2024-02-15T06:31:32;95901.03;;;4.97;80.26
13027;BME280;6580;42.680;23.324;2024-02-15T06:34:16;95896.94;;;4.93;80.01
13027;BME280;6580;42.680;23.324;2024-02-15T06:37:00;95899.78;;;4.90;79.84
13027;BME280;6580;42.680;23.324;2024-02-15T06:39:46;95907.16;;;4.97;81.04
13027;BME280;6580;42.680;23.324;2024-02-15T06:42:15;95907.16;;;4.85;80.36
13027;BME280;6580;42.680;23.324;2024-02-15T06:44:45;95904.44;;;4.99;80.00
13027;BME280;6580;42.680;23.324;2024-02-15T06:47:12;95907.56;;;5.04;80.58
13027;BME280;6580;42.680;23.324;2024-02-15T06:49:45;95912.22;;;5.00;80.09
13027;BME280;6580;42.680;23.324;2024-02-15T06:52:15;95907.97;;;5.10;79.31
13027;BME280;6580;42.680;23.324;2024-02-15T06:54:42;95911.94;;;5.28;79.00
13027;BME280;6580;42.680;23.324;2024-02-15T06:57:10;95905.00;;;5.27;78.56
13027;BME280;6580;42.680;23.324;2024-02-15T06:59:37;95919.19;;;5.73;77.26
13027;BME280;6580;42.680;23.324;2024-02-15T07:02:05;95915.41;;;5.65;76.41
13027;BME280;6580;42.680;23.324;2024-02-15T07:04:33;95903.34;;;5.97;74.51
13027;BME280;6580;42.680;23.324;2024-02-15T07:07:02;95903.47;;;5.95;74.22
13027;BME280;6580;42.680;23.324;2024-02-15T07:09:29;95899.91;;;6.07;73.12
13027;BME280;6580;42.680;23.324;2024-02-15T07:11:56;95901.28;;;5.89;73.62
13027;BME280;6580;42.680;23.324;2024-02-15T07:14:25;95892.72;;;6.20;73.99
13027;BME280;6580;42.680;23.324;2024-02-15T07:16:53;95894.09;;;6.02;72.92
13027;BME280;6580;42.680;23.324;2024-02-15T07:19:22;95893.66;;;5.61;75.67
13027;BME280;6580;42.680;23.324;2024-02-15T07:21:50;95897.63;;;5.79;74.93
13027;BME280;6580;42.680;23.324;2024-02-15T07:24:17;95871.53;;;5.98;73.49
13027;BME280;6580;42.680;23.324;2024-02-15T07:26:44;95882.91;;;5.99;72.12
13027;BME280;6580;42.680;23.324;2024-02-15T07:29:11;95895.72;;;5.81;72.12
13027;BME280;6580;42.680;23.324;2024-02-15T07:31:42;95888.22;;;5.99;72.52
13027;BME280;6580;42.680;23.324;2024-02-15T07:34:09;95894.63;;;6.07;71.87
13027;BME280;6580;42.680;23.324;2024-02-15T07:36:37;95899.13;;;5.94;71.92
13027;BME280;6580;42.680;23.324;2024-02-15T07:39:07;95887.69;;;5.94;71.88
13027;BME280;6580;42.680;23.324;2024-02-15T07:41:45;95888.28;;;5.86;72.46
13027;BME280;6580;42.680;23.324;2024-02-15T07:44:12;95885.84;;;6.06;71.83
13027;BME280;6580;42.680;23.324;2024-02-15T07:46:39;95871.25;;;6.24;70.94
13027;BME280;6580;42.680;23.324;2024-02-15T07:49:08;95883.88;;;6.43;70.16
13027;BME280;6580;42.680;23.324;2024-02-15T07:51:34;95873.97;;;6.23;70.64
13027;BME280;6580;42.680;23.324;2024-02-15T07:54:02;95875.13;;;5.97;71.70
13027;BME280;6580;42.680;23.324;2024-02-15T07:56:30;95879.69;;;6.06;72.28
13027;BME280;6580;42.680;23.324;2024-02-15T07:58:57;95883.19;;;6.52;70.96
13027;BME280;6580;42.680;23.324;2024-02-15T08:01:24;95888.22;;;6.44;71.16
13027;BME280;6580;42.680;23.324;2024-02-15T08:03:52;95881.38;;;6.41;70.64
13027;BME280;6580;42.680;23.324;2024-02-15T08:06:21;95883.06;;;6.08;70.00
13027;BME280;6580;42.680;23.324;2024-02-15T08:08:50;95875.34;;;5.94;71.80
13027;BME280;6580;42.680;23.324;2024-02-15T08:11:18;95880.59;;;6.28;71.92
13027;BME280;6580;42.680;23.324;2024-02-15T08:13:45;95867.78;;;6.46;70.42
13027;BME280;6580;42.680;23.324;2024-02-15T08:16:15;95867.47;;;6.72;68.36
13027;BME280;6580;42.680;23.324;2024-02-15T08:18:43;95872.13;;;6.47;69.47
13027;BME280;6580;42.680;23.324;2024-02-15T08:21:11;95871.19;;;6.70;68.80
13027;BME280;6580;42.680;23.324;2024-02-15T08:23:40;95865.91;;;6.81;68.06
13027;BME280;6580;42.680;23.324;2024-02-15T08:26:08;95868.81;;;6.89;68.66
13027;BME280;6580;42.680;23.324;2024-02-15T08:28:36;95862.78;;;6.87;67.87
13027;BME280;6580;42.680;23.324;2024-02-15T08:31:03;95858.31;;;6.87;68.55
13027;BME280;6580;42.680;23.324;2024-02-15T08:33:30;95869.53;;;6.91;68.04
13027;BME280;6580;42.680;23.324;2024-02-15T08:35:57;95863.38;;;7.12;66.66
13027;BME280;6580;42.680;23.324;2024-02-15T08:38:27;95856.34;;;7.33;66.75
13027;BME280;6580;42.680;23.324;2024-02-15T08:40:55;95856.91;;;7.58;65.54
13027;BME280;6580;42.680;23.324;2024-02-15T08:43:22;95865.06;;;7.98;63.40
13027;BME280;6580;42.680;23.324;2024-02-15T08:45:49;95868.00;;;7.52;64.01
13027;BME280;6580;42.680;23.324;2024-02-15T08:48:16;95841.09;;;7.99;62.66
13027;BME280;6580;42.680;23.324;2024-02-15T08:50:43;95859.91;;;7.96;63.01
13027;BME280;6580;42.680;23.324;2024-02-15T08:53:11;95851.13;;;8.77;60.37
13027;BME280;6580;42.680;23.324;2024-02-15T08:55:38;95845.53;;;9.59;57.49
13027;BME280;6580;42.680;23.324;2024-02-15T08:58:06;95837.88;;;9.94;55.49
13027;BME280;6580;42.680;23.324;2024-02-15T09:00:35;95845.28;;;9.71;55.24
13027;BME280;6580;42.680;23.324;2024-02-15T09:03:03;95839.97;;;9.81;53.79
13027;BME280;6580;42.680;23.324;2024-02-15T09:05:30;95846.69;;;9.17;55.16
13027;BME280;6580;42.680;23.324;2024-02-15T09:07:57;95829.59;;;10.63;53.25
13027;BME280;6580;42.680;23.324;2024-02-15T09:10:24;95837.63;;;10.44;53.97
13027;BME280;6580;42.680;23.324;2024-02-15T09:12:52;95832.53;;;11.15;51.86
13027;BME280;6580;42.680;23.324;2024-02-15T09:15:21;95818.41;;;12.20;48.93
13027;BME280;6580;42.680;23.324;2024-02-15T09:17:48;95815.00;;;13.29;46.29
13027;BME280;6580;42.680;23.324;2024-02-15T09:20:17;95810.50;;;13.71;44.97
13027;BME280;6580;42.680;23.324;2024-02-15T09:22:47;95805.72;;;13.91;44.72
13027;BME280;6580;42.680;23.324;2024-02-15T09:25:15;95809.94;;;14.01;43.46
13027;BME280;6580;42.680;23.324;2024-02-15T09:27:42;95809.50;;;14.45;41.89
13027;BME280;6580;42.680;23.324;2024-02-15T09:30:10;95806.91;;;14.04;41.36
13027;BME280;6580;42.680;23.324;2024-02-15T09:32:39;95808.66;;;14.69;40.21
13027;BME280;6580;42.680;23.324;2024-02-15T09:35:07;95808.16;;;14.73;41.01
13027;BME280;6580;42.680;23.324;2024-02-15T09:37:35;95795.88;;;14.95;39.77
13027;BME280;6580;42.680;23.324;2024-02-15T09:40:03;95795.41;;;15.92;38.15
13027;BME280;6580;42.680;23.324;2024-02-15T09:42:32;95796.59;;;16.12;37.81
13027;BME280;6580;42.680;23.324;2024-02-15T09:45:01;95793.66;;;16.74;36.77
13027;BME280;6580;42.680;23.324;2024-02-15T09:47:36;95778.38;;;17.03;36.14
13027;BME280;6580;42.680;23.324;2024-02-15T09:50:06;95792.66;;;16.22;37.22
13027;BME280;6580;42.680;23.324;2024-02-15T09:52:35;95785.50;;;16.45;36.29
13027;BME280;6580;42.680;23.324;2024-02-15T09:55:03;95788.53;;;14.57;37.76
13027;BME280;6580;42.680;23.324;2024-02-15T09:57:30;95781.31;;;14.97;39.11
13027;BME280;6580;42.680;23.324;2024-02-15T09:59:58;95785.06;;;16.33;36.24
13027;BME280;6580;42.680;23.324;2024-02-15T10:02:26;95774.63;;;17.27;34.97
13027;BME280;6580;42.680;23.324;2024-02-15T10:04:53;95738.25;;;17.45;34.24
13027;BME280;6580;42.680;23.324;2024-02-15T10:07:24;95774.31;;;17.07;34.89
13027;BME280;6580;42.680;23.324;2024-02-15T10:09:52;95764.72;;;17.41;34.42
13027;BME280;6580;42.680;23.324;2024-02-15T10:12:19;95763.28;;;17.74;34.10
13027;BME280;6580;42.680;23.324;2024-02-15T10:14:51;95765.06;;;17.10;34.57
13027;BME280;6580;42.680;23.324;2024-02-15T10:17:19;95757.59;;;16.46;34.95
13027;BME280;6580;42.680;23.324;2024-02-15T10:20:03;95751.22;;;17.27;34.78
13027;BME280;6580;42.680;23.324;2024-02-15T10:22:32;95740.66;;;16.60;34.34
13027;BME280;6580;42.680;23.324;2024-02-15T10:25:19;95750.31;;;14.87;37.44
13027;BME280;6580;42.680;23.324;2024-02-15T10:27:48;95741.38;;;16.91;35.16
13027;BME280;6580;42.680;23.324;2024-02-15T10:30:17;95730.16;;;17.59;33.39
13027;BME280;6580;42.680;23.324;2024-02-15T10:32:46;95734.81;;;17.08;35.27
13027;BME280;6580;42.680;23.324;2024-02-15T10:35:23;95732.81;;;18.24;33.42
13027;BME280;6580;42.680;23.324;2024-02-15T10:37:51;95729.59;;;17.99;32.40
13027;BME280;6580;42.680;23.324;2024-02-15T10:40:18;95742.03;;;16.11;35.35
13027;BME280;6580;42.680;23.324;2024-02-15T10:42:46;95722.50;;;18.34;33.02
13027;BME280;6580;42.680;23.324;2024-02-15T10:45:15;95718.03;;;18.40;32.30
13027;BME280;6580;42.680;23.324;2024-02-15T10:47:44;95716.38;;;18.88;31.91
13027;BME280;6580;42.680;23.324;2024-02-15T10:50:11;95715.06;;;17.79;32.60
13027;BME280;6580;42.680;23.324;2024-02-15T10:52:44;95715.53;;;17.68;32.56
13027;BME280;6580;42.680;23.324;2024-02-15T10:55:22;95710.75;;;17.99;32.89
13027;BME280;6580;42.680;23.324;2024-02-15T10:57:56;95704.59;;;19.69;31.16
13027;BME280;6580;42.680;23.324;2024-02-15T11:00:56;95695.06;;;19.80;31.02
13027;BME280;6580;42.680;23.324;2024-02-15T11:03:33;95701.84;;;20.03;29.97
13027;BME280;6580;42.680;23.324;2024-02-15T11:06:02;95699.81;;;18.70;31.12
13027;BME280;6580;42.680;23.324;2024-02-15T11:08:32;95697.72;;;19.60;30.11
13027;BME280;6580;42.680;23.324;2024-02-15T11:11:05;95696.91;;;18.99;30.72
13027;BME280;6580;42.680;23.324;2024-02-15T11:13:32;95698.59;;;16.96;32.74
13027;BME280;6580;42.680;23.324;2024-02-15T11:16:00;95710.38;;;15.99;34.17
13027;BME280;6580;42.680;23.324;2024-02-15T11:18:44;95700.56;;;16.28;34.40
13027;BME280;6580;42.680;23.324;2024-02-15T11:21:15;95684.66;;;16.78;33.68
13027;BME280;6580;42.680;23.324;2024-02-15T11:23:44;95687.50;;;18.40;33.34
13027;BME280;6580;42.680;23.324;2024-02-15T11:26:44;95690.00;;;19.57;30.27
13027;BME280;6580;42.680;23.324;2024-02-15T11:32:41;95686.34;;;19.31;31.19
13027;BME280;6580;42.680;23.324;2024-02-15T11:35:11;95678.66;;;20.80;29.43
13027;BME280;6580;42.680;23.324;2024-02-15T11:37:56;95665.06;;;21.19;28.99
13027;BME280;6580;42.680;23.324;2024-02-15T11:40:59;95681.63;;;18.30;31.22
13027;BME280;6580;42.680;23.324;2024-02-15T11:43:54;95694.13;;;16.74;34.15
13027;BME280;6580;42.680;23.324;2024-02-15T11:46:23;95665.03;;;18.81;31.30
13027;BME280;6580;42.680;23.324;2024-02-15T11:48:56;95668.81;;;18.59;31.03
13027;BME280;6580;42.680;23.324;2024-02-15T11:51:29;95665.91;;;19.22;30.86
13027;BME280;6580;42.680;23.324;2024-02-15T11:54:01;95675.19;;;18.79;31.37
13027;BME280;6580;42.680;23.324;2024-02-15T11:59:18;95673.19;;;18.60;31.45
13027;BME280;6580;42.680;23.324;2024-02-15T12:01:55;95676.38;;;17.87;33.18
13027;BME280;6580;42.680;23.324;2024-02-15T12:04:40;95669.03;;;18.16;32.58
13027;BME280;6580;42.680;23.324;2024-02-15T12:07:25;95652.53;;;18.46;32.03
13027;BME280;6580;42.680;23.324;2024-02-15T12:10:16;95657.44;;;19.78;30.50
13027;BME280;6580;42.680;23.324;2024-02-15T12:13:00;95662.50;;;17.19;33.14
13027;BME280;6580;42.680;23.324;2024-02-15T12:15:57;95651.28;;;18.49;33.01
13027;BME280;6580;42.680;23.324;2024-02-15T12:18:42;95645.16;;;19.23;30.94
13027;BME280;6580;42.680;23.324;2024-02-15T12:21:13;95648.47;;;19.78;30.57
13027;BME280;6580;42.680;23.324;2024-02-15T12:23:42;95640.59;;;18.96;31.25
13027;BME280;6580;42.680;23.324;2024-02-15T12:26:09;95648.69;;;19.76;30.87
13027;BME280;6580;42.680;23.324;2024-02-15T12:28:42;95644.22;;;20.09;30.81
13027;BME280;6580;42.680;23.324;2024-02-15T12:31:11;95646.34;;;17.69;32.63
13027;BME280;6580;42.680;23.324;2024-02-15T12:33:38;95647.19;;;17.34;33.22
13027;BME280;6580;42.680;23.324;2024-02-15T12:36:07;95637.94;;;18.41;32.18
13027;BME280;6580;42.680;23.324;2024-02-15T12:38:35;95634.72;;;18.10;32.67
13027;BME280;6580;42.680;23.324;2024-02-15T12:41:18;95639.84;;;17.84;33.71
13027;BME280;6580;42.680;23.324;2024-02-15T12:43:46;95633.09;;;18.57;32.77
13027;BME280;6580;42.680;23.324;2024-02-15T12:46:19;95629.84;;;17.08;33.97
13027;BME280;6580;42.680;23.324;2024-02-15T12:48:47;95634.31;;;17.50;33.88
13027;BME280;6580;42.680;23.324;2024-02-15T12:51:15;95616.41;;;17.99;33.16
13027;BME280;6580;42.680;23.324;2024-02-15T12:53:44;95631.81;;;19.15;31.94
13027;BME280;6580;42.680;23.324;2024-02-15T12:56:20;95613.16;;;18.86;31.48
13027;BME280;6580;42.680;23.324;2024-02-15T12:58:47;95629.66;;;18.42;33.05
13027;BME280;6580;42.680;23.324;2024-02-15T13:01:14;95623.22;;;19.05;32.12
13027;BME280;6580;42.680;23.324;2024-02-15T13:03:43;95627.25;;;18.06;32.87
13027;BME280;6580;42.680;23.324;2024-02-15T13:06:10;95620.16;;;18.46;32.60
13027;BME280;6580;42.680;23.324;2024-02-15T13:08:37;95612.50;;;18.84;32.52
13027;BME280;6580;42.680;23.324;2024-02-15T13:11:04;95625.56;;;19.61;31.12
13027;BME280;6580;42.680;23.324;2024-02-15T13:13:31;95621.22;;;19.66;31.15
13027;BME280;6580;42.680;23.324;2024-02-15T13:16:00;95622.56;;;19.96;30.76
13027;BME280;6580;42.680;23.324;2024-02-15T13:18:27;95620.25;;;19.87;30.44
13027;BME280;6580;42.680;23.324;2024-02-15T13:20:57;95620.94;;;19.42;31.37
13027;BME280;6580;42.680;23.324;2024-02-15T13:23:24;95622.56;;;19.96;30.30
13027;BME280;6580;42.680;23.324;2024-02-15T13:25:52;95624.47;;;19.42;30.88
13027;BME280;6580;42.680;23.324;2024-02-15T13:28:19;95629.44;;;15.79;35.50